Tulsa International Airport
KTUL : now visible

Airfield :











YOU CAN JOIN US ON...

 
LOGIN :

Register | Disclaimer

   EN    FR    IT 

 









Legend :    VFR   Marginal VFR   IFR   Intensive IFR   Very Intensive IFR
Visi :
Ceiling :
>= 8 km
>= 3000ft
5 to 8 km
1000 to 3000 ft
1500m to 5 km
500 to 1000 ft
800 to 1500m
200 to 500 ft
< 800m
< 200 ft
Symbols :   Thunderstorms  Fog  Heavy snow  Heavy precipitations  Wind > 20 kt






- Airport Elevation : 677 ft
- IATA code : TUL


KTUL - Tulsa International

CURRENT METAR :
  • 231453Z 14007KT 10SM -RA FEW080 BKN100 OVC120 08/04 A3004 RMK AO2 SLP173 P0001 60001 T00830039 53002

EXPIRED METARs :
  • 231353Z 16007KT 10SM -RA FEW080 OVC100 08/03 A3004 RMK AO2 RAB1259E18B36 SLP171 P0000 T00830028
  • 231253Z 15006KT 10SM FEW080 OVC100 08/02 A3003 RMK AO2 SLP169 T00830017

TAF KTUL
Valid from the 23 at 12:00 until the 24 at 12:00 UTC


231120Z 2312/2412 15007KT P6SM VCSH BKN100
FM231900 17010KT 5SM -RA BR OVC025
FM232200 15009KT 3SM -RA BR OVC012
FM240800 17010KT 5SM -RA BR OVC025



MET'MAP, your aeronautical weather chart ! - Copyright ORBIFLY December 2007 - Disclaimer

ORBIFLY MET'MAP TEAM :

Programming & Development : Alexandra Zaïnal
Concept & original design : Baudouin d'Aumeries
Assistance for programming : Marc-Olivier Méhu
Technical & hardware support : Manuel Goepfert

Contact : metmap@orbifly.com




SOURCES & CREDITS :

   NOAA       Earth
Advisory